Terminal Aerodrome Forecast
Issued by NWS

Home | Current Version | Previous Version | Graphics & Text | Print | Product List | Glossary On
Versions: 1 2 3 4 5 6 7 8 9 10 11 12 13 14 15 16
000
FTUS43 KMPX 261000 AAA
TAFRWF
TAF AMD
KRWF 261046Z 2611/2706 VRB03KT 3SM BR OVC150
      TEMPO 2611/2613 6SM BR
     FM261400 22005KT P6SM BKN120
     FM262100 26009KT P6SM SCT050=

USA.gov is the U.S. government's official web portal to all federal, state and local government web resources and services.